sensor_id;sensor_type;location;lat;lon;timestamp;P1;durP1;ratioP1;P2;durP2;ratioP2
42260;SDS011;27926;48.062;7.474;2023-05-16T00:00:13;21.88;;;15.60;;
42260;SDS011;27926;48.062;7.474;2023-05-16T00:02:39;19.60;;;14.15;;
42260;SDS011;27926;48.062;7.474;2023-05-16T00:05:07;21.30;;;13.93;;
42260;SDS011;27926;48.062;7.474;2023-05-16T00:07:33;22.60;;;13.43;;
42260;SDS011;27926;48.062;7.474;2023-05-16T00:09:58;17.67;;;13.85;;
42260;SDS011;27926;48.062;7.474;2023-05-16T00:12:23;19.25;;;12.88;;
42260;SDS011;27926;48.062;7.474;2023-05-16T00:14:48;26.57;;;16.83;;
42260;SDS011;27926;48.062;7.474;2023-05-16T00:17:14;28.00;;;18.30;;
42260;SDS011;27926;48.062;7.474;2023-05-16T00:19:40;26.02;;;17.58;;
42260;SDS011;27926;48.062;7.474;2023-05-16T00:22:05;28.08;;;19.60;;
42260;SDS011;27926;48.062;7.474;2023-05-16T00:24:29;21.67;;;14.85;;
42260;SDS011;27926;48.062;7.474;2023-05-16T00:26:54;23.05;;;13.90;;
42260;SDS011;27926;48.062;7.474;2023-05-16T00:29:19;17.48;;;12.95;;
42260;SDS011;27926;48.062;7.474;2023-05-16T00:31:43;22.85;;;13.65;;
42260;SDS011;27926;48.062;7.474;2023-05-16T00:34:08;23.88;;;14.15;;
42260;SDS011;27926;48.062;7.474;2023-05-16T00:36:32;23.38;;;16.65;;
42260;SDS011;27926;48.062;7.474;2023-05-16T00:41:23;25.00;;;14.18;;
42260;SDS011;27926;48.062;7.474;2023-05-16T00:43:48;24.55;;;16.75;;
42260;SDS011;27926;48.062;7.474;2023-05-16T00:46:12;14.40;;;10.93;;
42260;SDS011;27926;48.062;7.474;2023-05-16T00:48:38;24.50;;;17.20;;
42260;SDS011;27926;48.062;7.474;2023-05-16T00:51:02;19.48;;;14.52;;
42260;SDS011;27926;48.062;7.474;2023-05-16T00:53:32;18.17;;;13.68;;
42260;SDS011;27926;48.062;7.474;2023-05-16T00:55:56;22.58;;;13.45;;
42260;SDS011;27926;48.062;7.474;2023-05-16T00:58:22;22.42;;;13.88;;
42260;SDS011;27926;48.062;7.474;2023-05-16T01:00:47;21.58;;;14.00;;
42260;SDS011;27926;48.062;7.474;2023-05-16T01:03:12;20.30;;;12.60;;
42260;SDS011;27926;48.062;7.474;2023-05-16T01:05:37;17.05;;;12.32;;
42260;SDS011;27926;48.062;7.474;2023-05-16T01:08:02;19.05;;;13.05;;
42260;SDS011;27926;48.062;7.474;2023-05-16T01:10:30;18.77;;;13.88;;
42260;SDS011;27926;48.062;7.474;2023-05-16T01:13:13;26.30;;;17.23;;
42260;SDS011;27926;48.062;7.474;2023-05-16T01:15:48;28.17;;;17.80;;
42260;SDS011;27926;48.062;7.474;2023-05-16T01:18:30;30.45;;;18.25;;
42260;SDS011;27926;48.062;7.474;2023-05-16T01:21:00;28.92;;;19.88;;
42260;SDS011;27926;48.062;7.474;2023-05-16T01:26:15;28.97;;;19.73;;
42260;SDS011;27926;48.062;7.474;2023-05-16T01:28:43;24.40;;;17.95;;
42260;SDS011;27926;48.062;7.474;2023-05-16T01:31:09;26.30;;;17.40;;
42260;SDS011;27926;48.062;7.474;2023-05-16T01:33:34;23.75;;;16.58;;
42260;SDS011;27926;48.062;7.474;2023-05-16T01:39:05;18.85;;;14.15;;
42260;SDS011;27926;48.062;7.474;2023-05-16T01:44:04;20.63;;;13.43;;
42260;SDS011;27926;48.062;7.474;2023-05-16T01:46:41;18.83;;;13.23;;
42260;SDS011;27926;48.062;7.474;2023-05-16T01:49:16;22.80;;;12.95;;
42260;SDS011;27926;48.062;7.474;2023-05-16T01:51:49;18.70;;;12.68;;
42260;SDS011;27926;48.062;7.474;2023-05-16T01:54:17;17.20;;;13.10;;
42260;SDS011;27926;48.062;7.474;2023-05-16T01:59:15;25.50;;;13.07;;
42260;SDS011;27926;48.062;7.474;2023-05-16T02:01:41;25.13;;;14.57;;
42260;SDS011;27926;48.062;7.474;2023-05-16T02:04:05;25.30;;;14.48;;
42260;SDS011;27926;48.062;7.474;2023-05-16T02:06:30;20.08;;;14.85;;
42260;SDS011;27926;48.062;7.474;2023-05-16T02:08:54;25.55;;;16.63;;
42260;SDS011;27926;48.062;7.474;2023-05-16T02:11:19;28.42;;;17.02;;
42260;SDS011;27926;48.062;7.474;2023-05-16T02:13:45;26.58;;;17.00;;
42260;SDS011;27926;48.062;7.474;2023-05-16T02:16:10;29.52;;;18.10;;
42260;SDS011;27926;48.062;7.474;2023-05-16T02:18:34;28.40;;;17.98;;
42260;SDS011;27926;48.062;7.474;2023-05-16T02:20:59;29.25;;;18.70;;
42260;SDS011;27926;48.062;7.474;2023-05-16T02:23:23;28.83;;;20.77;;
42260;SDS011;27926;48.062;7.474;2023-05-16T02:25:48;32.47;;;20.02;;
42260;SDS011;27926;48.062;7.474;2023-05-16T02:28:12;33.40;;;20.83;;
42260;SDS011;27926;48.062;7.474;2023-05-16T02:30:37;37.63;;;21.02;;
42260;SDS011;27926;48.062;7.474;2023-05-16T02:33:02;32.80;;;21.10;;
42260;SDS011;27926;48.062;7.474;2023-05-16T02:35:26;20.67;;;14.18;;
42260;SDS011;27926;48.062;7.474;2023-05-16T02:37:52;34.63;;;22.08;;
42260;SDS011;27926;48.062;7.474;2023-05-16T02:40:18;34.92;;;22.25;;
42260;SDS011;27926;48.062;7.474;2023-05-16T02:42:43;37.95;;;23.58;;
42260;SDS011;27926;48.062;7.474;2023-05-16T02:45:07;38.17;;;21.95;;
42260;SDS011;27926;48.062;7.474;2023-05-16T02:47:32;38.72;;;23.52;;
42260;SDS011;27926;48.062;7.474;2023-05-16T02:49:57;40.40;;;24.20;;
42260;SDS011;27926;48.062;7.474;2023-05-16T02:52:21;42.90;;;25.58;;
42260;SDS011;27926;48.062;7.474;2023-05-16T02:54:46;41.15;;;25.55;;
42260;SDS011;27926;48.062;7.474;2023-05-16T02:57:10;43.63;;;24.83;;
42260;SDS011;27926;48.062;7.474;2023-05-16T02:59:35;41.63;;;25.35;;
42260;SDS011;27926;48.062;7.474;2023-05-16T03:02:00;45.92;;;24.83;;
42260;SDS011;27926;48.062;7.474;2023-05-16T03:04:25;46.53;;;27.52;;
42260;SDS011;27926;48.062;7.474;2023-05-16T03:06:49;51.28;;;27.50;;
42260;SDS011;27926;48.062;7.474;2023-05-16T03:09:14;54.67;;;27.70;;
42260;SDS011;27926;48.062;7.474;2023-05-16T03:11:38;51.25;;;28.58;;
42260;SDS011;27926;48.062;7.474;2023-05-16T03:14:04;52.83;;;30.40;;
42260;SDS011;27926;48.062;7.474;2023-05-16T03:16:29;52.83;;;29.08;;
42260;SDS011;27926;48.062;7.474;2023-05-16T03:18:54;48.17;;;28.85;;
42260;SDS011;27926;48.062;7.474;2023-05-16T03:23:44;59.60;;;31.10;;
42260;SDS011;27926;48.062;7.474;2023-05-16T03:26:09;53.58;;;29.45;;
42260;SDS011;27926;48.062;7.474;2023-05-16T03:28:33;56.25;;;31.75;;
42260;SDS011;27926;48.062;7.474;2023-05-16T03:30:58;54.75;;;32.25;;
42260;SDS011;27926;48.062;7.474;2023-05-16T03:33:23;58.80;;;31.92;;
42260;SDS011;27926;48.062;7.474;2023-05-16T03:35:48;53.08;;;30.05;;
42260;SDS011;27926;48.062;7.474;2023-05-16T03:38:12;58.10;;;32.45;;
42260;SDS011;27926;48.062;7.474;2023-05-16T03:40:38;62.47;;;32.33;;
42260;SDS011;27926;48.062;7.474;2023-05-16T03:43:03;53.65;;;31.35;;
42260;SDS011;27926;48.062;7.474;2023-05-16T03:45:28;60.95;;;32.33;;
42260;SDS011;27926;48.062;7.474;2023-05-16T03:47:53;58.75;;;32.42;;
42260;SDS011;27926;48.062;7.474;2023-05-16T03:50:18;53.85;;;32.08;;
42260;SDS011;27926;48.062;7.474;2023-05-16T03:52:43;56.53;;;33.55;;
42260;SDS011;27926;48.062;7.474;2023-05-16T03:55:08;55.15;;;33.05;;
42260;SDS011;27926;48.062;7.474;2023-05-16T03:57:33;57.63;;;33.58;;
42260;SDS011;27926;48.062;7.474;2023-05-16T03:59:58;56.88;;;31.85;;
42260;SDS011;27926;48.062;7.474;2023-05-16T04:02:23;62.20;;;32.20;;
42260;SDS011;27926;48.062;7.474;2023-05-16T04:04:47;69.10;;;35.03;;
42260;SDS011;27926;48.062;7.474;2023-05-16T04:07:12;54.58;;;32.75;;
42260;SDS011;27926;48.062;7.474;2023-05-16T04:09:36;63.35;;;32.80;;
42260;SDS011;27926;48.062;7.474;2023-05-16T04:12:01;59.63;;;35.13;;
42260;SDS011;27926;48.062;7.474;2023-05-16T04:14:26;59.67;;;33.72;;
42260;SDS011;27926;48.062;7.474;2023-05-16T04:16:50;56.88;;;34.03;;
42260;SDS011;27926;48.062;7.474;2023-05-16T04:19:15;68.97;;;34.72;;
42260;SDS011;27926;48.062;7.474;2023-05-16T04:21:40;66.57;;;33.75;;
42260;SDS011;27926;48.062;7.474;2023-05-16T04:24:04;64.80;;;36.20;;
42260;SDS011;27926;48.062;7.474;2023-05-16T04:26:29;60.27;;;32.60;;
42260;SDS011;27926;48.062;7.474;2023-05-16T04:28:54;62.38;;;34.20;;
42260;SDS011;27926;48.062;7.474;2023-05-16T04:31:20;55.40;;;32.47;;
42260;SDS011;27926;48.062;7.474;2023-05-16T04:36:10;58.15;;;32.22;;
42260;SDS011;27926;48.062;7.474;2023-05-16T04:38:35;63.28;;;35.22;;
42260;SDS011;27926;48.062;7.474;2023-05-16T04:41:00;59.90;;;32.70;;
42260;SDS011;27926;48.062;7.474;2023-05-16T04:43:26;57.97;;;33.80;;
42260;SDS011;27926;48.062;7.474;2023-05-16T04:45:51;63.70;;;34.38;;
42260;SDS011;27926;48.062;7.474;2023-05-16T04:48:17;56.13;;;32.92;;
42260;SDS011;27926;48.062;7.474;2023-05-16T04:50:41;57.80;;;33.35;;
42260;SDS011;27926;48.062;7.474;2023-05-16T04:53:06;54.13;;;32.75;;
42260;SDS011;27926;48.062;7.474;2023-05-16T04:55:31;51.42;;;31.58;;
42260;SDS011;27926;48.062;7.474;2023-05-16T04:57:55;56.50;;;31.20;;
42260;SDS011;27926;48.062;7.474;2023-05-16T05:00:20;55.80;;;31.17;;
42260;SDS011;27926;48.062;7.474;2023-05-16T05:02:45;60.17;;;32.53;;
42260;SDS011;27926;48.062;7.474;2023-05-16T05:05:09;55.10;;;30.75;;
42260;SDS011;27926;48.062;7.474;2023-05-16T05:07:34;52.42;;;31.42;;
42260;SDS011;27926;48.062;7.474;2023-05-16T05:09:59;59.50;;;31.42;;
42260;SDS011;27926;48.062;7.474;2023-05-16T05:12:23;55.53;;;32.33;;
42260;SDS011;27926;48.062;7.474;2023-05-16T05:14:48;54.13;;;30.55;;
42260;SDS011;27926;48.062;7.474;2023-05-16T05:17:12;57.20;;;30.63;;
42260;SDS011;27926;48.062;7.474;2023-05-16T05:19:37;64.43;;;31.52;;
42260;SDS011;27926;48.062;7.474;2023-05-16T05:22:02;57.83;;;29.40;;
42260;SDS011;27926;48.062;7.474;2023-05-16T05:24:26;55.83;;;31.08;;
42260;SDS011;27926;48.062;7.474;2023-05-16T05:26:51;57.17;;;31.45;;
42260;SDS011;27926;48.062;7.474;2023-05-16T05:29:16;66.90;;;31.67;;
42260;SDS011;27926;48.062;7.474;2023-05-16T05:31:40;71.13;;;34.05;;
42260;SDS011;27926;48.062;7.474;2023-05-16T05:34:05;56.60;;;31.27;;
42260;SDS011;27926;48.062;7.474;2023-05-16T05:36:29;59.17;;;29.98;;
42260;SDS011;27926;48.062;7.474;2023-05-16T05:38:54;51.60;;;29.63;;
42260;SDS011;27926;48.062;7.474;2023-05-16T05:41:19;67.93;;;30.80;;
42260;SDS011;27926;48.062;7.474;2023-05-16T05:43:45;59.72;;;31.58;;
42260;SDS011;27926;48.062;7.474;2023-05-16T05:46:09;51.72;;;29.70;;
42260;SDS011;27926;48.062;7.474;2023-05-16T05:48:34;65.68;;;33.83;;
42260;SDS011;27926;48.062;7.474;2023-05-16T05:51:02;64.07;;;29.58;;
42260;SDS011;27926;48.062;7.474;2023-05-16T05:53:26;53.13;;;28.55;;
42260;SDS011;27926;48.062;7.474;2023-05-16T05:55:51;65.32;;;31.20;;
42260;SDS011;27926;48.062;7.474;2023-05-16T05:58:16;62.85;;;31.08;;
42260;SDS011;27926;48.062;7.474;2023-05-16T06:00:41;62.63;;;32.53;;
42260;SDS011;27926;48.062;7.474;2023-05-16T06:03:05;60.13;;;29.40;;
42260;SDS011;27926;48.062;7.474;2023-05-16T06:05:30;51.83;;;29.05;;
42260;SDS011;27926;48.062;7.474;2023-05-16T06:07:55;54.17;;;27.90;;
42260;SDS011;27926;48.062;7.474;2023-05-16T06:10:19;52.67;;;28.33;;
42260;SDS011;27926;48.062;7.474;2023-05-16T06:12:44;53.75;;;27.70;;
42260;SDS011;27926;48.062;7.474;2023-05-16T06:15:09;51.50;;;26.05;;
42260;SDS011;27926;48.062;7.474;2023-05-16T06:17:34;52.63;;;27.37;;
42260;SDS011;27926;48.062;7.474;2023-05-16T06:19:59;52.35;;;26.98;;
42260;SDS011;27926;48.062;7.474;2023-05-16T06:22:23;50.03;;;26.75;;
42260;SDS011;27926;48.062;7.474;2023-05-16T06:24:48;46.75;;;25.88;;
42260;SDS011;27926;48.062;7.474;2023-05-16T06:27:13;54.38;;;25.90;;
42260;SDS011;27926;48.062;7.474;2023-05-16T06:29:37;43.25;;;23.58;;
42260;SDS011;27926;48.062;7.474;2023-05-16T06:32:02;52.22;;;26.40;;
42260;SDS011;27926;48.062;7.474;2023-05-16T06:34:27;43.85;;;25.55;;
42260;SDS011;27926;48.062;7.474;2023-05-16T06:36:51;48.60;;;23.85;;
42260;SDS011;27926;48.062;7.474;2023-05-16T06:39:16;44.65;;;25.10;;
42260;SDS011;27926;48.062;7.474;2023-05-16T06:41:41;50.20;;;24.75;;
42260;SDS011;27926;48.062;7.474;2023-05-16T06:44:05;53.30;;;25.08;;
42260;SDS011;27926;48.062;7.474;2023-05-16T06:46:30;41.45;;;23.75;;
42260;SDS011;27926;48.062;7.474;2023-05-16T06:48:55;44.38;;;23.55;;
42260;SDS011;27926;48.062;7.474;2023-05-16T06:51:21;40.75;;;22.52;;
42260;SDS011;27926;48.062;7.474;2023-05-16T06:53:46;40.00;;;23.10;;
42260;SDS011;27926;48.062;7.474;2023-05-16T06:56:11;45.78;;;22.63;;
42260;SDS011;27926;48.062;7.474;2023-05-16T07:01:01;39.20;;;21.77;;
42260;SDS011;27926;48.062;7.474;2023-05-16T07:03:27;39.83;;;22.80;;
42260;SDS011;27926;48.062;7.474;2023-05-16T07:05:52;40.83;;;23.05;;
42260;SDS011;27926;48.062;7.474;2023-05-16T07:08:16;45.45;;;23.42;;
42260;SDS011;27926;48.062;7.474;2023-05-16T07:10:41;48.80;;;21.23;;
42260;SDS011;27926;48.062;7.474;2023-05-16T07:13:06;39.75;;;22.48;;
42260;SDS011;27926;48.062;7.474;2023-05-16T07:15:30;36.08;;;20.90;;
42260;SDS011;27926;48.062;7.474;2023-05-16T07:17:55;38.03;;;22.25;;
42260;SDS011;27926;48.062;7.474;2023-05-16T07:20:20;36.75;;;20.60;;
42260;SDS011;27926;48.062;7.474;2023-05-16T07:22:44;43.38;;;21.55;;
42260;SDS011;27926;48.062;7.474;2023-05-16T07:25:09;38.20;;;20.98;;
42260;SDS011;27926;48.062;7.474;2023-05-16T07:30:00;41.90;;;21.08;;
42260;SDS011;27926;48.062;7.474;2023-05-16T07:32:24;37.67;;;20.15;;
42260;SDS011;27926;48.062;7.474;2023-05-16T07:34:49;44.28;;;21.13;;
42260;SDS011;27926;48.062;7.474;2023-05-16T07:37:13;39.88;;;20.35;;
42260;SDS011;27926;48.062;7.474;2023-05-16T07:39:39;41.78;;;21.73;;
42260;SDS011;27926;48.062;7.474;2023-05-16T07:42:05;43.13;;;20.15;;
42260;SDS011;27926;48.062;7.474;2023-05-16T07:44:29;34.30;;;19.08;;
42260;SDS011;27926;48.062;7.474;2023-05-16T07:46:54;34.88;;;19.80;;
42260;SDS011;27926;48.062;7.474;2023-05-16T07:49:19;39.67;;;19.48;;
42260;SDS011;27926;48.062;7.474;2023-05-16T07:51:43;28.95;;;17.13;;
42260;SDS011;27926;48.062;7.474;2023-05-16T07:54:08;33.63;;;18.00;;
42260;SDS011;27926;48.062;7.474;2023-05-16T07:56:33;32.38;;;17.70;;
42260;SDS011;27926;48.062;7.474;2023-05-16T07:58:58;31.23;;;18.23;;
42260;SDS011;27926;48.062;7.474;2023-05-16T08:01:23;29.57;;;17.03;;
42260;SDS011;27926;48.062;7.474;2023-05-16T08:03:47;28.60;;;16.52;;
42260;SDS011;27926;48.062;7.474;2023-05-16T08:06:12;29.90;;;18.42;;
42260;SDS011;27926;48.062;7.474;2023-05-16T08:08:37;34.67;;;17.35;;
42260;SDS011;27926;48.062;7.474;2023-05-16T08:11:02;37.90;;;16.58;;
42260;SDS011;27926;48.062;7.474;2023-05-16T08:15:53;27.15;;;16.35;;
42260;SDS011;27926;48.062;7.474;2023-05-16T08:18:17;43.08;;;16.80;;
42260;SDS011;27926;48.062;7.474;2023-05-16T08:20:42;28.73;;;15.98;;
42260;SDS011;27926;48.062;7.474;2023-05-16T08:23:07;36.17;;;19.17;;
42260;SDS011;27926;48.062;7.474;2023-05-16T08:25:32;41.80;;;16.10;;
42260;SDS011;27926;48.062;7.474;2023-05-16T08:27:57;27.15;;;15.80;;
42260;SDS011;27926;48.062;7.474;2023-05-16T08:30:21;37.13;;;16.55;;
42260;SDS011;27926;48.062;7.474;2023-05-16T08:32:46;30.55;;;15.23;;
42260;SDS011;27926;48.062;7.474;2023-05-16T08:35:10;25.60;;;15.30;;
42260;SDS011;27926;48.062;7.474;2023-05-16T08:37:35;27.83;;;15.20;;
42260;SDS011;27926;48.062;7.474;2023-05-16T08:40:00;26.30;;;14.90;;
42260;SDS011;27926;48.062;7.474;2023-05-16T08:42:25;29.13;;;13.77;;
42260;SDS011;27926;48.062;7.474;2023-05-16T08:44:50;32.33;;;15.90;;
42260;SDS011;27926;48.062;7.474;2023-05-16T08:47:18;24.52;;;14.20;;
42260;SDS011;27926;48.062;7.474;2023-05-16T08:49:46;29.95;;;14.18;;
42260;SDS011;27926;48.062;7.474;2023-05-16T08:52:11;31.60;;;13.90;;
42260;SDS011;27926;48.062;7.474;2023-05-16T08:54:37;24.48;;;13.07;;
42260;SDS011;27926;48.062;7.474;2023-05-16T08:57:04;29.48;;;12.27;;
42260;SDS011;27926;48.062;7.474;2023-05-16T08:59:29;25.83;;;13.02;;
42260;SDS011;27926;48.062;7.474;2023-05-16T09:01:55;22.60;;;12.68;;
42260;SDS011;27926;48.062;7.474;2023-05-16T09:04:20;22.30;;;11.43;;
42260;SDS011;27926;48.062;7.474;2023-05-16T09:06:46;21.27;;;12.32;;
42260;SDS011;27926;48.062;7.474;2023-05-16T09:09:11;21.02;;;11.57;;
42260;SDS011;27926;48.062;7.474;2023-05-16T09:11:35;29.85;;;11.98;;
42260;SDS011;27926;48.062;7.474;2023-05-16T09:14:00;21.87;;;11.93;;
42260;SDS011;27926;48.062;7.474;2023-05-16T09:16:25;26.02;;;11.40;;
42260;SDS011;27926;48.062;7.474;2023-05-16T09:18:53;23.63;;;11.82;;
42260;SDS011;27926;48.062;7.474;2023-05-16T09:21:19;24.10;;;10.40;;
42260;SDS011;27926;48.062;7.474;2023-05-16T09:23:44;16.95;;;10.43;;
42260;SDS011;27926;48.062;7.474;2023-05-16T09:26:12;26.15;;;10.90;;
42260;SDS011;27926;48.062;7.474;2023-05-16T09:28:37;19.20;;;10.38;;
42260;SDS011;27926;48.062;7.474;2023-05-16T09:31:02;18.77;;;10.50;;
42260;SDS011;27926;48.062;7.474;2023-05-16T09:33:27;19.27;;;10.30;;
42260;SDS011;27926;48.062;7.474;2023-05-16T09:35:56;17.38;;;9.27;;
42260;SDS011;27926;48.062;7.474;2023-05-16T09:38:22;22.38;;;10.20;;
42260;SDS011;27926;48.062;7.474;2023-05-16T09:40:49;15.43;;;8.63;;
42260;SDS011;27926;48.062;7.474;2023-05-16T09:43:14;18.60;;;9.48;;
42260;SDS011;27926;48.062;7.474;2023-05-16T09:45:39;20.40;;;9.35;;
42260;SDS011;27926;48.062;7.474;2023-05-16T09:48:10;23.27;;;8.70;;
42260;SDS011;27926;48.062;7.474;2023-05-16T09:50:38;18.88;;;8.73;;
42260;SDS011;27926;48.062;7.474;2023-05-16T09:53:03;17.65;;;9.18;;
42260;SDS011;27926;48.062;7.474;2023-05-16T09:55:28;15.23;;;8.35;;
42260;SDS011;27926;48.062;7.474;2023-05-16T09:57:54;14.85;;;7.90;;
42260;SDS011;27926;48.062;7.474;2023-05-16T10:00:19;31.88;;;7.60;;
42260;SDS011;27926;48.062;7.474;2023-05-16T10:02:44;14.45;;;7.40;;
42260;SDS011;27926;48.062;7.474;2023-05-16T10:05:09;25.98;;;7.38;;
42260;SDS011;27926;48.062;7.474;2023-05-16T10:07:33;12.52;;;6.20;;
42260;SDS011;27926;48.062;7.474;2023-05-16T10:10:03;10.13;;;5.83;;
42260;SDS011;27926;48.062;7.474;2023-05-16T10:12:29;15.15;;;5.80;;
42260;SDS011;27926;48.062;7.474;2023-05-16T10:14:55;9.98;;;5.60;;
42260;SDS011;27926;48.062;7.474;2023-05-16T10:17:21;11.13;;;5.75;;
42260;SDS011;27926;48.062;7.474;2023-05-16T10:19:50;9.73;;;5.75;;
42260;SDS011;27926;48.062;7.474;2023-05-16T10:22:17;10.25;;;4.60;;
42260;SDS011;27926;48.062;7.474;2023-05-16T10:24:47;10.70;;;5.55;;
42260;SDS011;27926;48.062;7.474;2023-05-16T10:27:39;11.63;;;4.80;;
42260;SDS011;27926;48.062;7.474;2023-05-16T10:30:05;7.15;;;4.53;;
42260;SDS011;27926;48.062;7.474;2023-05-16T10:34:55;11.02;;;5.10;;
42260;SDS011;27926;48.062;7.474;2023-05-16T10:37:23;8.43;;;4.55;;
42260;SDS011;27926;48.062;7.474;2023-05-16T10:39:48;7.95;;;4.55;;
42260;SDS011;27926;48.062;7.474;2023-05-16T10:42:13;7.78;;;4.97;;
42260;SDS011;27926;48.062;7.474;2023-05-16T10:44:41;6.53;;;4.47;;
42260;SDS011;27926;48.062;7.474;2023-05-16T10:47:05;13.05;;;4.70;;
42260;SDS011;27926;48.062;7.474;2023-05-16T10:49:30;6.10;;;4.43;;
42260;SDS011;27926;48.062;7.474;2023-05-16T10:54:34;8.18;;;4.55;;
42260;SDS011;27926;48.062;7.474;2023-05-16T10:57:19;10.60;;;4.63;;
42260;SDS011;27926;48.062;7.474;2023-05-16T10:59:47;8.40;;;4.43;;
42260;SDS011;27926;48.062;7.474;2023-05-16T11:02:23;11.68;;;4.00;;
42260;SDS011;27926;48.062;7.474;2023-05-16T11:04:52;9.20;;;4.55;;
42260;SDS011;27926;48.062;7.474;2023-05-16T11:07:24;11.13;;;4.63;;
42260;SDS011;27926;48.062;7.474;2023-05-16T11:10:06;8.48;;;4.30;;
42260;SDS011;27926;48.062;7.474;2023-05-16T11:17:49;7.32;;;3.92;;
42260;SDS011;27926;48.062;7.474;2023-05-16T11:20:31;9.35;;;3.78;;
42260;SDS011;27926;48.062;7.474;2023-05-16T11:25:44;4.75;;;3.20;;
42260;SDS011;27926;48.062;7.474;2023-05-16T11:28:11;5.43;;;3.28;;
42260;SDS011;27926;48.062;7.474;2023-05-16T11:30:41;6.32;;;3.90;;
42260;SDS011;27926;48.062;7.474;2023-05-16T11:33:18;8.48;;;3.83;;
42260;SDS011;27926;48.062;7.474;2023-05-16T11:35:42;7.60;;;3.63;;
42260;SDS011;27926;48.062;7.474;2023-05-16T11:38:22;5.30;;;3.80;;
42260;SDS011;27926;48.062;7.474;2023-05-16T11:40:47;7.13;;;3.65;;
42260;SDS011;27926;48.062;7.474;2023-05-16T11:43:16;6.93;;;3.47;;
42260;SDS011;27926;48.062;7.474;2023-05-16T11:45:42;11.45;;;3.42;;
42260;SDS011;27926;48.062;7.474;2023-05-16T11:48:06;4.57;;;3.13;;
42260;SDS011;27926;48.062;7.474;2023-05-16T11:50:33;6.50;;;3.28;;
42260;SDS011;27926;48.062;7.474;2023-05-16T11:52:59;4.15;;;3.10;;
42260;SDS011;27926;48.062;7.474;2023-05-16T11:55:25;3.20;;;2.80;;
42260;SDS011;27926;48.062;7.474;2023-05-16T11:57:53;4.22;;;2.92;;
42260;SDS011;27926;48.062;7.474;2023-05-16T12:00:18;4.20;;;2.72;;
42260;SDS011;27926;48.062;7.474;2023-05-16T12:02:45;5.03;;;2.83;;
42260;SDS011;27926;48.062;7.474;2023-05-16T12:05:12;3.00;;;2.40;;
42260;SDS011;27926;48.062;7.474;2023-05-16T12:07:37;6.63;;;2.50;;
42260;SDS011;27926;48.062;7.474;2023-05-16T12:10:09;3.60;;;2.40;;
42260;SDS011;27926;48.062;7.474;2023-05-16T12:12:36;4.28;;;2.42;;
42260;SDS011;27926;48.062;7.474;2023-05-16T12:15:03;6.13;;;2.35;;
42260;SDS011;27926;48.062;7.474;2023-05-16T12:17:29;3.33;;;2.55;;
42260;SDS011;27926;48.062;7.474;2023-05-16T12:19:54;6.55;;;2.25;;
42260;SDS011;27926;48.062;7.474;2023-05-16T12:22:19;3.33;;;2.90;;
42260;SDS011;27926;48.062;7.474;2023-05-16T12:24:44;3.42;;;2.80;;
42260;SDS011;27926;48.062;7.474;2023-05-16T12:27:08;3.78;;;2.70;;
42260;SDS011;27926;48.062;7.474;2023-05-16T12:29:33;3.60;;;2.03;;
42260;SDS011;27926;48.062;7.474;2023-05-16T12:31:57;2.88;;;2.25;;
42260;SDS011;27926;48.062;7.474;2023-05-16T12:36:52;6.10;;;2.08;;
42260;SDS011;27926;48.062;7.474;2023-05-16T12:39:18;3.97;;;1.90;;
42260;SDS011;27926;48.062;7.474;2023-05-16T12:41:44;3.70;;;1.85;;
42260;SDS011;27926;48.062;7.474;2023-05-16T12:44:12;3.00;;;1.73;;
42260;SDS011;27926;48.062;7.474;2023-05-16T12:46:40;2.88;;;1.73;;
42260;SDS011;27926;48.062;7.474;2023-05-16T12:49:08;2.83;;;1.83;;
42260;SDS011;27926;48.062;7.474;2023-05-16T12:51:33;2.42;;;1.45;;
42260;SDS011;27926;48.062;7.474;2023-05-16T12:54:05;3.65;;;1.85;;
42260;SDS011;27926;48.062;7.474;2023-05-16T12:56:31;2.15;;;1.40;;
42260;SDS011;27926;48.062;7.474;2023-05-16T12:58:56;6.32;;;1.58;;
42260;SDS011;27926;48.062;7.474;2023-05-16T13:01:21;3.72;;;1.55;;
42260;SDS011;27926;48.062;7.474;2023-05-16T13:03:45;4.18;;;1.70;;
42260;SDS011;27926;48.062;7.474;2023-05-16T13:06:10;3.22;;;1.50;;
42260;SDS011;27926;48.062;7.474;2023-05-16T13:08:34;3.67;;;1.40;;
42260;SDS011;27926;48.062;7.474;2023-05-16T13:10:59;2.97;;;1.65;;
42260;SDS011;27926;48.062;7.474;2023-05-16T13:13:24;3.13;;;2.30;;
42260;SDS011;27926;48.062;7.474;2023-05-16T13:15:48;6.72;;;1.90;;
42260;SDS011;27926;48.062;7.474;2023-05-16T13:18:13;1.88;;;1.15;;
42260;SDS011;27926;48.062;7.474;2023-05-16T13:20:38;3.20;;;1.20;;
42260;SDS011;27926;48.062;7.474;2023-05-16T13:23:03;2.42;;;1.27;;
42260;SDS011;27926;48.062;7.474;2023-05-16T13:25:28;2.60;;;1.20;;
42260;SDS011;27926;48.062;7.474;2023-05-16T13:27:52;3.55;;;1.33;;
42260;SDS011;27926;48.062;7.474;2023-05-16T13:30:17;3.65;;;1.35;;
42260;SDS011;27926;48.062;7.474;2023-05-16T13:32:42;10.32;;;1.00;;
42260;SDS011;27926;48.062;7.474;2023-05-16T13:35:06;3.40;;;1.25;;
42260;SDS011;27926;48.062;7.474;2023-05-16T13:39:57;6.88;;;1.40;;
42260;SDS011;27926;48.062;7.474;2023-05-16T13:42:21;1.10;;;1.00;;
42260;SDS011;27926;48.062;7.474;2023-05-16T13:44:46;12.55;;;1.30;;
42260;SDS011;27926;48.062;7.474;2023-05-16T13:47:11;8.95;;;2.08;;
42260;SDS011;27926;48.062;7.474;2023-05-16T13:49:35;5.88;;;1.20;;
42260;SDS011;27926;48.062;7.474;2023-05-16T13:52:00;2.85;;;1.17;;
42260;SDS011;27926;48.062;7.474;2023-05-16T13:54:25;5.90;;;1.42;;
42260;SDS011;27926;48.062;7.474;2023-05-16T13:56:50;3.08;;;1.52;;
42260;SDS011;27926;48.062;7.474;2023-05-16T13:59:14;7.50;;;1.92;;
42260;SDS011;27926;48.062;7.474;2023-05-16T14:01:39;7.47;;;1.63;;
42260;SDS011;27926;48.062;7.474;2023-05-16T14:04:04;3.42;;;1.30;;
42260;SDS011;27926;48.062;7.474;2023-05-16T14:06:29;6.82;;;1.00;;
42260;SDS011;27926;48.062;7.474;2023-05-16T14:08:54;5.27;;;1.40;;
42260;SDS011;27926;48.062;7.474;2023-05-16T14:11:18;5.53;;;1.63;;
42260;SDS011;27926;48.062;7.474;2023-05-16T14:13:45;3.15;;;1.40;;
42260;SDS011;27926;48.062;7.474;2023-05-16T14:16:11;4.80;;;1.60;;
42260;SDS011;27926;48.062;7.474;2023-05-16T14:18:36;5.28;;;1.60;;
42260;SDS011;27926;48.062;7.474;2023-05-16T14:21:00;3.88;;;1.50;;
42260;SDS011;27926;48.062;7.474;2023-05-16T14:23:25;6.90;;;1.55;;
42260;SDS011;27926;48.062;7.474;2023-05-16T14:25:49;5.03;;;1.60;;
42260;SDS011;27926;48.062;7.474;2023-05-16T14:28:14;8.18;;;2.30;;
42260;SDS011;27926;48.062;7.474;2023-05-16T14:30:39;6.35;;;2.00;;
42260;SDS011;27926;48.062;7.474;2023-05-16T14:33:04;4.53;;;1.67;;
42260;SDS011;27926;48.062;7.474;2023-05-16T14:35:29;2.00;;;1.27;;
42260;SDS011;27926;48.062;7.474;2023-05-16T14:37:54;2.05;;;1.33;;
42260;SDS011;27926;48.062;7.474;2023-05-16T14:40:18;5.70;;;1.30;;
42260;SDS011;27926;48.062;7.474;2023-05-16T14:45:09;8.13;;;1.75;;
42260;SDS011;27926;48.062;7.474;2023-05-16T14:47:34;5.07;;;1.15;;
42260;SDS011;27926;48.062;7.474;2023-05-16T14:49:59;3.13;;;1.63;;
42260;SDS011;27926;48.062;7.474;2023-05-16T14:52:24;4.78;;;2.53;;
42260;SDS011;27926;48.062;7.474;2023-05-16T14:54:48;5.40;;;1.48;;
42260;SDS011;27926;48.062;7.474;2023-05-16T14:57:13;3.80;;;1.58;;
42260;SDS011;27926;48.062;7.474;2023-05-16T14:59:37;8.23;;;1.88;;
42260;SDS011;27926;48.062;7.474;2023-05-16T15:02:02;8.15;;;1.73;;
42260;SDS011;27926;48.062;7.474;2023-05-16T15:04:27;4.45;;;1.73;;
42260;SDS011;27926;48.062;7.474;2023-05-16T15:06:52;8.65;;;2.13;;